createdAt,value
2019-02-12T00:04:20.624Z,70.00
2019-02-12T00:14:22.689Z,70.50
2019-02-12T00:24:24.788Z,70.90
2019-02-12T00:34:26.771Z,71.00
2019-02-12T00:44:28.799Z,71.30
2019-02-12T00:54:30.775Z,71.80
2019-02-12T01:04:33.130Z,72.50
2019-02-12T01:14:35.432Z,72.90
2019-02-12T01:24:37.443Z,73.10
2019-02-12T01:34:39.410Z,73.10
2019-02-12T01:44:41.393Z,73.10
2019-02-12T01:54:43.358Z,74.10
2019-02-12T02:04:45.283Z,74.60
2019-02-12T02:14:47.571Z,75.30
2019-02-12T02:24:49.552Z,76.40
2019-02-12T02:34:51.553Z,75.60
2019-02-12T02:44:53.497Z,76.00
2019-02-12T02:54:55.443Z,76.30
2019-02-12T03:04:57.426Z,76.50
2019-02-12T03:15:01.213Z,76.70
2019-02-12T03:25:04.130Z,76.90
2019-02-12T03:35:06.980Z,76.80
2019-02-12T03:45:09.572Z,77.40
2019-02-12T03:55:12.232Z,76.80
2019-02-12T04:05:14.977Z,76.40
2019-02-12T04:15:17.251Z,76.20
2019-02-12T04:25:19.204Z,76.60
2019-02-12T04:35:21.656Z,77.30
2019-02-12T04:45:23.632Z,77.70
2019-02-12T04:55:25.616Z,78.00
2019-02-12T05:05:27.851Z,78.50
2019-02-12T05:15:30.313Z,78.70
2019-02-12T05:25:34.087Z,78.70
2019-02-12T05:35:36.081Z,79.10
2019-02-12T05:45:38.318Z,78.80
2019-02-12T05:55:40.300Z,79.00
2019-02-12T06:05:42.416Z,79.40
2019-02-12T06:15:44.541Z,79.10
2019-02-12T06:25:46.566Z,78.90
2019-02-12T06:35:48.526Z,79.00
2019-02-12T06:45:54.502Z,79.00
2019-02-12T06:55:56.753Z,79.00
2019-02-12T07:06:08.083Z,78.90
2019-02-12T07:16:26.694Z,79.00
2019-02-12T07:27:17.541Z,78.50
2019-02-12T07:38:00.799Z,78.20
2019-02-12T07:48:27.330Z,77.40
2019-02-12T07:59:12.987Z,76.80
2019-02-12T08:10:12.227Z,76.20
2019-02-12T08:21:10.835Z,76.40
2019-02-12T08:31:22.003Z,76.10
2019-02-12T08:41:59.296Z,75.10
2019-02-12T08:52:48.914Z,75.40
2019-02-12T09:03:24.356Z,74.80
2019-02-12T09:13:53.968Z,72.80
2019-02-12T09:24:25.102Z,71.10
2019-02-12T09:35:24.182Z,70.80
2019-02-12T09:45:57.243Z,71.10
2019-02-12T09:56:28.972Z,70.80
2019-02-12T10:07:06.809Z,70.60
2019-02-12T10:17:53.691Z,70.00
2019-02-12T10:28:33.412Z,68.90
2019-02-12T10:38:36.269Z,68.50
2019-02-12T10:48:40.401Z,68.20
2019-02-12T10:58:42.523Z,67.30
2019-02-12T11:08:44.664Z,67.20
2019-02-12T11:18:48.006Z,65.90
2019-02-12T11:28:50.784Z,65.90
2019-02-12T11:38:52.711Z,65.80
2019-02-12T11:48:54.894Z,64.80
2019-02-12T11:58:58.047Z,64.10
2019-02-12T12:09:00.280Z,63.30
2019-02-12T12:19:03.411Z,61.90
2019-02-12T12:29:06.067Z,60.80
2019-02-12T12:39:08.993Z,60.10
2019-02-12T12:49:30.392Z,60.00
2019-02-12T12:59:32.374Z,58.40
2019-02-12T13:09:34.372Z,57.70
2019-02-12T13:19:36.624Z,58.00
2019-02-12T13:29:38.662Z,55.90
2019-02-12T13:39:41.886Z,56.20
2019-02-12T13:49:45.575Z,56.90
2019-02-12T13:59:48.314Z,58.10
2019-02-12T14:09:51.146Z,58.90
2019-02-12T14:19:53.333Z,59.70
2019-02-12T14:29:55.723Z,58.30
2019-02-12T14:39:58.263Z,56.10
2019-02-12T14:50:00.429Z,56.60
2019-02-12T15:00:05.013Z,59.30
2019-02-12T15:10:08.702Z,60.00
2019-02-12T15:20:10.988Z,60.30
2019-02-12T15:30:13.354Z,60.50
2019-02-12T15:40:16.231Z,61.40
2019-02-12T15:50:19.190Z,61.80
2019-02-12T16:00:22.030Z,62.30
2019-02-12T16:10:24.008Z,63.30
2019-02-12T16:20:26.142Z,64.80
2019-02-12T16:30:28.119Z,65.90
2019-02-12T16:40:30.426Z,67.00
2019-02-12T16:50:33.511Z,68.70
2019-02-12T17:00:35.879Z,69.80
2019-02-12T17:10:38.019Z,70.70
2019-02-12T17:20:40.411Z,71.10
2019-02-12T17:30:42.339Z,71.30
2019-02-12T17:40:44.310Z,71.40
2019-02-12T17:50:48.078Z,71.30
2019-02-12T18:00:50.334Z,71.70
2019-02-12T18:10:54.115Z,71.80
2019-02-12T18:20:56.653Z,72.50
2019-02-12T18:30:59.004Z,72.10
2019-02-12T18:41:01.169Z,72.50
2019-02-12T18:51:03.384Z,72.80
2019-02-12T19:01:05.459Z,73.10
2019-02-12T19:11:07.406Z,73.40
2019-02-12T19:21:09.387Z,73.70
2019-02-12T19:31:11.507Z,73.90
2019-02-12T19:41:13.806Z,74.10
2019-02-12T19:51:16.476Z,74.70
2019-02-12T20:01:19.810Z,75.30
2019-02-12T20:11:21.269Z,75.10
2019-02-12T20:21:23.377Z,75.00
2019-02-12T20:31:25.326Z,74.50
2019-02-12T20:41:27.339Z,74.40
2019-02-12T20:51:29.379Z,74.60
2019-02-12T21:01:32.763Z,74.70
2019-02-12T21:11:34.165Z,74.50
2019-02-12T21:21:36.396Z,74.70
2019-02-12T21:31:38.464Z,74.50
2019-02-12T21:41:40.558Z,74.40
2019-02-12T21:51:43.077Z,75.00
2019-02-12T22:01:45.900Z,74.20
2019-02-12T22:11:48.203Z,74.00
2019-02-12T22:21:50.286Z,73.60
2019-02-12T22:31:52.254Z,73.40
2019-02-12T22:41:54.524Z,73.20
2019-02-12T22:51:58.261Z,73.00
2019-02-12T23:02:00.640Z,73.20
2019-02-12T23:12:02.930Z,73.40
2019-02-12T23:22:04.976Z,73.50
2019-02-12T23:32:06.925Z,73.80
2019-02-12T23:42:09.246Z,73.90
2019-02-12T23:52:11.549Z,74.20
